KCRW/CRW METAR and TAF weather

Enter ICAO airport designator
Station Type Date Time Source
KCRW METAR 2020/04/09 18:54 UTC NOAA

KCRW 091854Z 28012G24KT 10SM FEW080 14/M06 A2966 RMK AO2 PK WND 32026/1816 SLP040 T01391061


Station Type Date Time Source
KCRW Decoded METAR 2020/04/09 18:54 UTC NOAA

YEAGER AIRPORT, WV, United States (KCRW) 38-22N 081-36W 309M
Apr 09, 2020 - 02:54 PM EDT / 2020.04.09 1854 UTC
Wind: from the W (280 degrees) at 14 MPH (12 KT) gusting to 28 MPH (24 KT):0
Visibility: 10 mile(s):0
Sky conditions: mostly clear
Temperature: 57.0 F (13.9 C)
Dew Point: 21.0 F (-6.1 C)
Relative Humidity: 24%
Pressure (altimeter): 29.66 in. Hg (1004 hPa)
ob: KCRW 091854Z 28012G24KT 10SM FEW080 14/M06 A2966 RMK AO2 PK WND 32026/1816 SLP040 T01391061
cycle: 19

Station Type Date Time Source
KCRW TAF 2020/04/09 17:24 UTC NOAA

TAF
AMD KCRW 091723Z 0917/1018 28020G30KT P6SM SCT070
FM100000 28013G17KT P6SM OVC035
FM100600 28010KT P6SM -SHRA OVC024
FM100800 28010G17KT P6SM BKN030
FM101100 28010G21KT P6SM SCT030
FM101300 29011KT P6SM BKN030
FM101500 29012G19KT P6SM BKN040

Example: see airport list